createdAt,value
2022-10-05T00:00:50.185Z,100238.19
2022-10-05T00:03:18.408Z,100242.91
2022-10-05T00:05:46.616Z,100247.13
2022-10-05T00:08:25.116Z,100244.47
2022-10-05T00:10:53.368Z,100239.31
2022-10-05T00:13:26.567Z,100240.16
2022-10-05T00:16:20.053Z,100237.59
2022-10-05T00:18:52.636Z,100235.81
2022-10-05T00:21:26.395Z,100228.81
2022-10-05T00:23:56.429Z,100226.78
2022-10-05T00:26:26.811Z,100226.16
2022-10-05T00:28:55.185Z,100220.13
2022-10-05T00:31:31.974Z,100219.84
2022-10-05T00:34:00.196Z,100226.81
2022-10-05T00:36:28.076Z,100229.34
2022-10-05T00:38:55.848Z,100227.13
2022-10-05T00:41:53.067Z,100231.41
2022-10-05T00:44:49.746Z,100231.72
2022-10-05T00:47:40.685Z,100225.75
2022-10-05T00:50:27.075Z,100225.78
2022-10-05T00:53:05.145Z,100234.91
2022-10-05T00:55:37.587Z,100232.59
2022-10-05T00:58:32.986Z,100226.16
2022-10-05T01:01:15.905Z,100229.06
2022-10-05T01:03:50.265Z,100229.53
2022-10-05T01:06:56.338Z,100229.22
2022-10-05T01:09:27.065Z,100227.75
2022-10-05T01:12:14.460Z,100223.94
2022-10-05T01:14:42.585Z,100234.31
2022-10-05T01:17:26.562Z,100236.31
2022-10-05T01:20:06.787Z,100240.09
2022-10-05T01:23:12.967Z,100246.66
2022-10-05T01:25:52.946Z,100259.88
2022-10-05T01:28:54.136Z,100258.09
2022-10-05T01:32:08.456Z,100257.84
2022-10-05T01:34:41.187Z,100258.38
2022-10-05T01:37:23.128Z,100261.81
2022-10-05T01:40:05.544Z,100266.34
2022-10-05T01:42:42.745Z,100265.47
2022-10-05T01:45:23.416Z,100263.41
2022-10-05T01:47:59.514Z,100258.13
2022-10-05T01:50:27.165Z,100266.66
2022-10-05T01:53:05.757Z,100257.41
2022-10-05T01:55:44.887Z,100247.97
2022-10-05T01:58:20.236Z,100264.06
2022-10-05T02:00:59.234Z,100258.94
2022-10-05T02:03:39.966Z,100257.03
2022-10-05T02:06:15.917Z,100264.44
2022-10-05T02:08:48.126Z,100267.25
2022-10-05T02:11:18.707Z,100273.22
2022-10-05T02:13:51.705Z,100270.75
2022-10-05T02:16:19.455Z,100278.56
2022-10-05T02:18:57.994Z,100271.53
2022-10-05T02:21:27.092Z,100277.91
2022-10-05T02:23:58.004Z,100273.75
2022-10-05T02:26:26.515Z,100270.31
2022-10-05T02:28:58.848Z,100282.72
2022-10-05T02:31:41.140Z,100273.91
2022-10-05T02:34:30.704Z,100270.47
2022-10-05T02:37:20.475Z,100274.72
2022-10-05T02:40:14.547Z,100282.50
2022-10-05T02:42:57.635Z,100276.00
2022-10-05T02:45:44.244Z,100271.37
2022-10-05T02:48:24.189Z,100271.94
2022-10-05T02:51:03.999Z,100281.78
2022-10-05T02:53:40.505Z,100280.94
2022-10-05T02:56:19.505Z,100271.37
2022-10-05T02:59:06.984Z,100277.59
2022-10-05T03:01:41.024Z,100273.16
2022-10-05T03:04:34.478Z,100278.94
2022-10-05T03:07:14.906Z,100269.56
2022-10-05T03:10:01.543Z,100275.19
2022-10-05T03:12:49.366Z,100266.38
2022-10-05T03:15:45.367Z,100263.66
2022-10-05T03:18:33.525Z,100260.66
2022-10-05T03:21:15.230Z,100257.34
2022-10-05T03:23:49.516Z,100252.03
2022-10-05T03:26:20.565Z,100243.41
2022-10-05T03:29:00.664Z,100244.34
2022-10-05T03:31:53.635Z,100248.69
2022-10-05T03:34:38.286Z,100247.72
2022-10-05T03:37:15.917Z,100251.06
2022-10-05T03:39:48.127Z,100255.38
2022-10-05T03:42:35.130Z,100261.44
2022-10-05T03:45:18.547Z,100261.91
2022-10-05T03:48:01.440Z,100268.81
2022-10-05T03:50:33.655Z,100267.03
2022-10-05T03:53:06.147Z,100272.00
2022-10-05T03:56:18.964Z,100273.81
2022-10-05T03:58:54.887Z,100270.28
2022-10-05T04:01:26.298Z,100263.38
2022-10-05T04:03:59.367Z,100280.69
2022-10-05T04:06:34.383Z,100283.28
2022-10-05T04:09:34.467Z,100278.44
2022-10-05T04:12:37.757Z,100282.25
2022-10-05T04:15:18.698Z,100278.66
2022-10-05T04:17:50.895Z,100275.34
2022-10-05T04:20:43.595Z,100277.53
2022-10-05T04:23:15.227Z,100278.88
2022-10-05T04:25:50.705Z,100285.00
2022-10-05T04:29:13.106Z,100290.09
2022-10-05T04:32:15.726Z,100287.31
2022-10-05T04:34:57.090Z,100282.72
2022-10-05T04:37:46.549Z,100282.78
2022-10-05T04:40:45.768Z,100290.34
2022-10-05T04:43:23.246Z,100282.81
2022-10-05T04:45:51.098Z,100284.94
2022-10-05T04:48:44.808Z,100289.38
2022-10-05T04:51:34.879Z,100284.53
2022-10-05T04:54:03.133Z,100301.16
2022-10-05T04:56:37.736Z,100294.56
2022-10-05T04:59:25.066Z,100292.22
2022-10-05T05:02:47.275Z,100283.47
2022-10-05T05:05:15.708Z,100289.03
2022-10-05T05:08:04.977Z,100297.28
2022-10-05T05:10:39.805Z,100299.34
2022-10-05T05:13:21.877Z,100291.50
2022-10-05T05:16:13.270Z,100288.50
2022-10-05T05:18:58.397Z,100286.31
2022-10-05T05:21:38.979Z,100280.38
2022-10-05T05:24:19.307Z,100285.72
2022-10-05T05:26:56.146Z,100288.06
2022-10-05T05:29:34.556Z,100289.13
2022-10-05T05:32:24.863Z,100284.16
2022-10-05T05:35:31.246Z,100286.97
2022-10-05T05:38:23.596Z,100298.59
2022-10-05T05:41:13.057Z,100303.19
2022-10-05T05:43:53.520Z,100305.81
2022-10-05T05:47:01.703Z,100299.81
2022-10-05T05:49:28.045Z,100307.66
2022-10-05T05:52:00.042Z,100313.78
2022-10-05T05:54:36.325Z,100315.53
2022-10-05T05:57:11.196Z,100318.09
2022-10-05T05:59:59.306Z,100328.44
2022-10-05T06:02:48.103Z,100330.12
2022-10-05T06:05:16.388Z,100332.59
2022-10-05T06:07:44.826Z,100337.62
2022-10-05T06:10:38.147Z,100335.69
2022-10-05T06:13:12.325Z,100344.09
2022-10-05T06:15:49.665Z,100346.66
2022-10-05T06:18:20.217Z,100360.16
2022-10-05T06:20:57.627Z,100380.09
2022-10-05T06:23:49.059Z,100383.13
2022-10-05T06:26:39.721Z,100389.97
2022-10-05T06:29:12.856Z,100393.47
2022-10-05T06:32:03.073Z,100381.00
2022-10-05T06:34:31.316Z,100388.12
2022-10-05T06:37:01.698Z,100394.88
2022-10-05T06:40:05.100Z,100393.19
2022-10-05T06:42:57.587Z,100404.59
2022-10-05T06:45:39.027Z,100407.84
2022-10-05T06:48:40.306Z,100401.75
2022-10-05T06:51:35.079Z,100398.34
2022-10-05T06:54:14.436Z,100408.50
2022-10-05T06:56:50.026Z,100406.59
2022-10-05T06:59:30.270Z,100418.28
2022-10-05T07:02:14.972Z,100410.41
2022-10-05T07:05:12.717Z,100419.94
2022-10-05T07:07:58.650Z,100424.81
2022-10-05T07:11:08.637Z,100425.12
2022-10-05T07:13:47.914Z,100425.66
2022-10-05T07:16:28.763Z,100424.66
2022-10-05T07:19:08.224Z,100423.63
2022-10-05T07:22:13.954Z,100427.19
2022-10-05T07:24:45.017Z,100425.53
2022-10-05T07:27:16.177Z,100412.59
2022-10-05T07:30:19.377Z,100409.75
2022-10-05T07:33:01.736Z,100408.53
2022-10-05T07:36:12.226Z,100424.94
2022-10-05T07:38:46.176Z,100425.00
2022-10-05T07:41:20.347Z,100423.75
2022-10-05T07:44:03.791Z,100419.31
2022-10-05T07:46:32.265Z,100423.47
2022-10-05T07:49:23.370Z,100417.16
2022-10-05T07:51:53.477Z,100421.97
2022-10-05T07:54:26.015Z,100415.50
2022-10-05T07:57:11.887Z,100415.41
2022-10-05T07:59:58.648Z,100419.19
2022-10-05T08:02:33.958Z,100424.88
2022-10-05T08:05:23.650Z,100422.19
2022-10-05T08:07:55.961Z,100430.16
2022-10-05T08:10:49.627Z,100430.41
2022-10-05T08:13:30.254Z,100422.78
2022-10-05T08:16:02.228Z,100425.56
2022-10-05T08:18:48.920Z,100432.63
2022-10-05T08:21:21.466Z,100429.22
2022-10-05T08:23:58.287Z,100427.88
2022-10-05T08:26:46.255Z,100426.34
2022-10-05T08:29:24.598Z,100424.94
2022-10-05T08:31:58.457Z,100420.37
2022-10-05T08:34:50.373Z,100416.19
2022-10-05T08:37:24.887Z,100415.91
2022-10-05T08:39:56.857Z,100413.09
2022-10-05T08:42:53.158Z,100401.22
2022-10-05T08:46:02.706Z,100405.84
2022-10-05T08:48:37.080Z,100410.44
2022-10-05T08:51:26.867Z,100401.00
2022-10-05T08:54:25.850Z,100387.84
2022-10-05T08:56:56.774Z,100393.81
2022-10-05T08:59:24.968Z,100393.47
2022-10-05T09:01:59.120Z,100391.84
2022-10-05T09:04:36.367Z,100398.56
2022-10-05T09:07:14.736Z,100394.38
2022-10-05T09:10:10.926Z,100398.03
2022-10-05T09:12:47.751Z,100402.22
2022-10-05T09:15:46.106Z,100411.19
2022-10-05T09:18:38.960Z,100421.44
2022-10-05T09:21:19.048Z,100421.00
2022-10-05T09:23:50.085Z,100419.78
2022-10-05T09:26:52.396Z,100430.22
2022-10-05T09:29:38.486Z,100428.72
2022-10-05T09:32:11.849Z,100431.81
2022-10-05T09:35:04.778Z,100433.31
2022-10-05T09:38:11.688Z,100426.28
2022-10-05T09:40:57.995Z,100433.97
2022-10-05T09:43:41.097Z,100438.56
2022-10-05T09:46:23.233Z,100435.78
2022-10-05T09:48:57.557Z,100438.47
2022-10-05T09:51:48.700Z,100435.97
2022-10-05T09:54:43.989Z,100425.16
2022-10-05T09:57:20.975Z,100421.41
2022-10-05T10:00:10.809Z,100411.03
2022-10-05T10:03:20.168Z,100413.41
2022-10-05T10:05:57.949Z,100417.78
2022-10-05T10:08:36.678Z,100432.94
2022-10-05T10:11:08.210Z,100420.44
2022-10-05T10:13:53.987Z,100416.50
2022-10-05T10:16:46.498Z,100408.97
2022-10-05T10:19:26.426Z,100415.72
2022-10-05T10:22:22.519Z,100422.19
2022-10-05T10:25:31.998Z,100424.06
2022-10-05T10:28:19.953Z,100418.62
2022-10-05T10:31:15.439Z,100414.13
2022-10-05T10:34:01.965Z,100423.81
2022-10-05T10:36:57.098Z,100423.34
2022-10-05T10:39:28.266Z,100417.88
2022-10-05T10:42:33.548Z,100419.06
2022-10-05T10:45:05.140Z,100431.34
2022-10-05T10:47:53.354Z,100428.53
2022-10-05T10:50:50.544Z,100423.97
2022-10-05T10:53:58.430Z,100429.19
2022-10-05T10:56:48.812Z,100421.78
2022-10-05T10:59:51.637Z,100422.03
2022-10-05T11:02:53.194Z,100413.37
2022-10-05T11:05:50.148Z,100409.66
2022-10-05T11:08:39.317Z,100405.16
2022-10-05T11:11:23.854Z,100417.03
2022-10-05T11:14:29.088Z,100414.06
2022-10-05T11:17:20.147Z,100405.31
2022-10-05T11:20:20.536Z,100405.81
2022-10-05T11:23:12.988Z,100397.59
2022-10-05T11:26:17.838Z,100398.62
2022-10-05T11:28:51.447Z,100404.91
2022-10-05T11:31:31.395Z,100396.47
2022-10-05T11:34:07.033Z,100400.91
2022-10-05T11:36:54.645Z,100388.59
2022-10-05T11:39:44.060Z,100383.00
2022-10-05T11:42:39.117Z,100384.41
2022-10-05T11:45:25.268Z,100380.66
2022-10-05T11:47:56.386Z,100373.50
2022-10-05T11:50:39.308Z,100370.72
2022-10-05T11:53:13.597Z,100374.16
2022-10-05T11:56:04.423Z,100366.34
2022-10-05T11:58:40.124Z,100368.28
2022-10-05T12:01:30.676Z,100372.41
2022-10-05T12:04:25.027Z,100362.75
2022-10-05T12:07:11.886Z,100361.72
2022-10-05T12:10:21.867Z,100354.66
2022-10-05T12:13:06.889Z,100347.56
2022-10-05T12:15:42.343Z,100351.19
2022-10-05T12:18:32.940Z,100351.31
2022-10-05T12:21:28.062Z,100356.59
2022-10-05T12:24:10.088Z,100357.41
2022-10-05T12:26:46.036Z,100350.53
2022-10-05T12:29:22.368Z,100346.97
2022-10-05T12:32:01.267Z,100348.69
2022-10-05T12:34:39.029Z,100345.09
2022-10-05T12:37:29.076Z,100346.63
2022-10-05T12:40:14.187Z,100343.00
2022-10-05T12:43:05.066Z,100343.59
2022-10-05T12:45:39.852Z,100331.91
2022-10-05T12:48:34.286Z,100332.03
2022-10-05T12:51:19.762Z,100325.94
2022-10-05T12:54:09.672Z,100328.97
2022-10-05T12:56:44.970Z,100329.22
2022-10-05T12:59:36.465Z,100320.41
2022-10-05T13:02:30.575Z,100313.44
2022-10-05T13:05:04.876Z,100306.34
2022-10-05T13:07:41.748Z,100311.97
2022-10-05T13:10:19.468Z,100320.38
2022-10-05T13:13:12.285Z,100314.25
2022-10-05T13:16:05.209Z,100311.81
2022-10-05T13:18:54.977Z,100317.28
2022-10-05T13:21:48.515Z,100310.38
2022-10-05T13:24:24.318Z,100321.34
2022-10-05T13:26:59.355Z,100309.69
2022-10-05T13:29:42.897Z,100303.22
2022-10-05T13:32:17.836Z,100301.91
2022-10-05T13:35:10.651Z,100300.88
2022-10-05T13:38:06.416Z,100299.78
2022-10-05T13:40:35.809Z,100301.91
2022-10-05T13:43:17.798Z,100301.16
2022-10-05T13:45:55.767Z,100302.88
2022-10-05T13:48:41.636Z,100292.53
2022-10-05T13:51:19.699Z,100303.91
2022-10-05T13:54:02.431Z,100295.13
2022-10-05T13:56:34.173Z,100289.34
2022-10-05T13:59:25.767Z,100294.97
2022-10-05T14:02:05.652Z,100296.41
2022-10-05T14:04:47.198Z,100296.28
2022-10-05T14:07:35.208Z,100295.56
2022-10-05T14:10:07.662Z,100286.75
2022-10-05T14:12:43.987Z,100297.16
2022-10-05T14:15:28.066Z,100301.44
2022-10-05T14:17:56.197Z,100295.97
2022-10-05T14:20:36.302Z,100298.47
2022-10-05T14:23:18.566Z,100295.44
2022-10-05T14:25:54.295Z,100290.38
2022-10-05T14:28:33.931Z,100297.25
2022-10-05T14:31:14.653Z,100301.69
2022-10-05T14:33:42.999Z,100298.84
2022-10-05T14:36:34.187Z,100299.50
2022-10-05T14:39:05.249Z,100299.16
2022-10-05T14:41:37.776Z,100298.97
2022-10-05T14:44:09.694Z,100309.34
2022-10-05T14:46:40.309Z,100296.50
2022-10-05T14:49:28.326Z,100294.16
2022-10-05T14:51:57.169Z,100294.13
2022-10-05T14:54:28.004Z,100299.94
2022-10-05T14:57:22.745Z,100292.09
2022-10-05T15:00:04.419Z,100288.53
2022-10-05T15:02:52.519Z,100295.09
2022-10-05T15:05:35.715Z,100297.28
2022-10-05T15:08:13.363Z,100295.31
2022-10-05T15:10:47.247Z,100294.56
2022-10-05T15:13:19.015Z,100293.63
2022-10-05T15:15:57.111Z,100297.44
2022-10-05T15:18:44.264Z,100292.75
2022-10-05T15:21:43.470Z,100288.91
2022-10-05T15:24:44.435Z,100274.06
2022-10-05T15:27:39.716Z,100257.16
2022-10-05T15:30:15.517Z,100257.72
2022-10-05T15:33:01.506Z,100262.22
2022-10-05T15:35:36.988Z,100271.53
2022-10-05T15:38:14.297Z,100278.81
2022-10-05T15:41:10.948Z,100285.16
2022-10-05T15:43:46.756Z,100269.06
2022-10-05T15:46:24.635Z,100257.63
2022-10-05T15:49:18.817Z,100255.03
2022-10-05T15:52:27.129Z,100252.44
2022-10-05T15:55:00.955Z,100255.66
2022-10-05T15:57:53.948Z,100271.13
2022-10-05T16:00:23.098Z,100268.63
2022-10-05T16:03:00.439Z,100272.34
2022-10-05T16:06:25.458Z,100260.41
2022-10-05T16:09:14.025Z,100254.41
2022-10-05T16:12:02.763Z,100268.19
2022-10-05T16:15:01.048Z,100268.78
2022-10-05T16:17:29.017Z,100274.37
2022-10-05T16:20:35.993Z,100284.59
2022-10-05T16:23:28.456Z,100278.84
2022-10-05T16:26:05.995Z,100281.31
2022-10-05T16:29:11.937Z,100291.50
2022-10-05T16:31:52.667Z,100289.03
2022-10-05T16:34:44.619Z,100284.25
2022-10-05T16:37:33.629Z,100289.91
2022-10-05T16:40:16.646Z,100292.91
2022-10-05T16:43:09.258Z,100288.25
2022-10-05T16:45:45.118Z,100288.94
2022-10-05T16:48:26.352Z,100298.81
2022-10-05T16:51:38.578Z,100303.53
2022-10-05T16:54:18.536Z,100301.19
2022-10-05T16:56:57.586Z,100304.31
2022-10-05T16:59:58.076Z,100305.84
2022-10-05T17:02:25.892Z,100301.25
2022-10-05T17:05:20.306Z,100307.97
2022-10-05T17:08:10.048Z,100314.78
2022-10-05T17:10:38.208Z,100317.38
2022-10-05T17:13:43.805Z,100317.09
2022-10-05T17:16:24.286Z,100320.47
2022-10-05T17:19:10.356Z,100329.31
2022-10-05T17:21:55.964Z,100324.06
2022-10-05T17:24:36.226Z,100327.38
2022-10-05T17:27:50.699Z,100321.03
2022-10-05T17:30:39.310Z,100323.62
2022-10-05T17:33:27.634Z,100337.50
2022-10-05T17:36:12.616Z,100332.44
2022-10-05T17:38:53.383Z,100335.97
2022-10-05T17:41:28.885Z,100337.94
2022-10-05T17:44:24.694Z,100339.66
2022-10-05T17:47:00.018Z,100342.66
2022-10-05T17:50:18.336Z,100349.66
2022-10-05T17:53:54.157Z,100343.59
2022-10-05T17:56:23.216Z,100339.94
2022-10-05T17:58:54.768Z,100346.28
2022-10-05T18:01:30.867Z,100343.44
2022-10-05T18:04:26.316Z,100341.41
2022-10-05T18:06:59.908Z,100340.09
2022-10-05T18:09:31.055Z,100335.78
2022-10-05T18:12:03.374Z,100339.47
2022-10-05T18:15:00.989Z,100336.88
2022-10-05T18:17:41.323Z,100336.44
2022-10-05T18:20:16.004Z,100341.09
2022-10-05T18:22:46.660Z,100341.19
2022-10-05T18:25:20.977Z,100347.31
2022-10-05T18:27:50.895Z,100341.19
2022-10-05T18:30:23.388Z,100336.44
2022-10-05T18:32:51.377Z,100341.44
2022-10-05T18:35:33.526Z,100352.25
2022-10-05T18:38:30.868Z,100348.47
2022-10-05T18:41:17.599Z,100343.34
2022-10-05T18:44:15.130Z,100340.25
2022-10-05T18:46:54.911Z,100341.63
2022-10-05T18:50:01.567Z,100336.50
2022-10-05T18:53:00.726Z,100331.66
2022-10-05T18:55:36.887Z,100335.47
2022-10-05T18:58:24.282Z,100334.16
2022-10-05T19:01:23.604Z,100331.63
2022-10-05T19:03:59.407Z,100331.69
2022-10-05T19:07:09.029Z,100334.41
2022-10-05T19:09:51.155Z,100339.66
2022-10-05T19:12:22.001Z,100340.88
2022-10-05T19:15:16.078Z,100342.22
2022-10-05T19:18:19.427Z,100339.88
2022-10-05T19:21:01.508Z,100338.19
2022-10-05T19:23:45.476Z,100341.00
2022-10-05T19:26:25.746Z,100342.00
2022-10-05T19:29:06.654Z,100348.09
2022-10-05T19:31:44.975Z,100350.66
2022-10-05T19:34:24.995Z,100349.16
2022-10-05T19:37:19.597Z,100349.16
2022-10-05T19:39:54.536Z,100341.28
2022-10-05T19:43:00.608Z,100350.19
2022-10-05T19:45:30.007Z,100345.63
2022-10-05T19:48:29.755Z,100344.94
2022-10-05T19:50:59.490Z,100344.16
2022-10-05T19:53:36.545Z,100352.72
2022-10-05T19:56:21.170Z,100348.34
2022-10-05T19:58:50.925Z,100357.84
2022-10-05T20:01:27.843Z,100346.59
2022-10-05T20:03:57.824Z,100353.59
2022-10-05T20:06:27.195Z,100356.25
2022-10-05T20:09:01.755Z,100352.09
2022-10-05T20:11:29.629Z,100364.22
2022-10-05T20:13:58.675Z,100369.47
2022-10-05T20:16:45.272Z,100386.06
2022-10-05T20:19:50.631Z,100374.66
2022-10-05T20:22:39.716Z,100386.00
2022-10-05T20:25:29.089Z,100383.34
2022-10-05T20:27:57.455Z,100382.50
2022-10-05T20:30:28.309Z,100382.50
2022-10-05T20:33:01.639Z,100390.34
2022-10-05T20:35:31.132Z,100388.56
2022-10-05T20:37:59.533Z,100386.84
2022-10-05T20:40:29.331Z,100385.19
2022-10-05T20:42:58.437Z,100387.72
2022-10-05T20:45:26.576Z,100392.06
2022-10-05T20:47:55.262Z,100384.28
2022-10-05T20:50:23.345Z,100374.69
2022-10-05T20:52:51.483Z,100379.09
2022-10-05T20:55:20.894Z,100381.69
2022-10-05T20:57:49.116Z,100379.06
2022-10-05T21:00:16.877Z,100379.97
2022-10-05T21:02:44.655Z,100383.44
2022-10-05T21:05:12.915Z,100383.44
2022-10-05T21:07:41.086Z,100382.47
2022-10-05T21:10:09.186Z,100384.19
2022-10-05T21:12:37.585Z,100378.94
2022-10-05T21:15:05.947Z,100384.25
2022-10-05T21:17:34.827Z,100384.28
2022-10-05T21:20:02.945Z,100385.16
2022-10-05T21:22:30.948Z,100393.75
2022-10-05T21:24:58.817Z,100382.56
2022-10-05T21:27:26.905Z,100392.13
2022-10-05T21:29:54.718Z,100385.94
2022-10-05T21:32:22.463Z,100390.31
2022-10-05T21:34:50.497Z,100389.41
2022-10-05T21:37:20.045Z,100388.59
2022-10-05T21:39:48.223Z,100380.75
2022-10-05T21:42:16.305Z,100372.03
2022-10-05T21:44:44.084Z,100377.16
2022-10-05T21:47:12.596Z,100383.22
2022-10-05T21:49:41.615Z,100382.44
2022-10-05T21:52:09.406Z,100377.16
2022-10-05T21:54:37.136Z,100378.94
2022-10-05T21:57:05.278Z,100377.25
2022-10-05T21:59:34.156Z,100377.09
2022-10-05T22:02:02.555Z,100385.94
2022-10-05T22:04:30.565Z,100372.81
2022-10-05T22:06:58.386Z,100373.75
2022-10-05T22:09:26.128Z,100385.91
2022-10-05T22:11:55.111Z,100387.47
2022-10-05T22:14:22.920Z,100380.63
2022-10-05T22:16:50.739Z,100372.66
2022-10-05T22:19:19.649Z,100377.97
2022-10-05T22:21:47.645Z,100371.03
2022-10-05T22:24:15.414Z,100363.06
2022-10-05T22:26:46.146Z,100370.09
2022-10-05T22:29:15.311Z,100363.22
2022-10-05T22:31:44.062Z,100362.41
2022-10-05T22:34:11.838Z,100360.66
2022-10-05T22:36:39.577Z,100358.81
2022-10-05T22:39:08.358Z,100363.19
2022-10-05T22:41:36.067Z,100363.81
2022-10-05T22:44:04.475Z,100359.72
2022-10-05T22:46:32.796Z,100351.03
2022-10-05T22:49:00.548Z,100359.37
2022-10-05T22:51:28.556Z,100356.06
2022-10-05T22:53:56.618Z,100361.44
2022-10-05T22:56:24.356Z,100354.50
2022-10-05T22:58:52.716Z,100354.34
2022-10-05T23:01:21.071Z,100349.34
2022-10-05T23:03:48.967Z,100346.72
2022-10-05T23:06:20.753Z,100345.00
2022-10-05T23:08:48.933Z,100344.91
2022-10-05T23:11:24.055Z,100342.34
2022-10-05T23:13:57.003Z,100345.59
2022-10-05T23:16:26.983Z,100337.81
2022-10-05T23:18:56.199Z,100328.47
2022-10-05T23:21:25.967Z,100333.72
2022-10-05T23:23:53.958Z,100339.69
2022-10-05T23:26:24.021Z,100339.75
2022-10-05T23:28:52.058Z,100330.16
2022-10-05T23:31:25.255Z,100333.78
2022-10-05T23:33:54.046Z,100328.50
2022-10-05T23:36:24.096Z,100326.78
2022-10-05T23:38:52.316Z,100321.53
2022-10-05T23:41:20.846Z,100323.38
2022-10-05T23:43:49.049Z,100323.38
2022-10-05T23:46:18.082Z,100321.63
2022-10-05T23:48:46.217Z,100325.94
2022-10-05T23:51:14.626Z,100325.06
2022-10-05T23:53:42.414Z,100322.47
2022-10-05T23:56:10.455Z,100319.88
2022-10-05T23:58:38.176Z,100323.34
